createdAt,value
2023-04-02T00:00:11.369Z,33.65
2023-04-02T00:03:03.687Z,32.60
2023-04-02T00:05:31.876Z,34.75
2023-04-02T00:08:01.132Z,34.10
2023-04-02T00:10:32.178Z,31.60
2023-04-02T00:13:03.249Z,36.55
2023-04-02T00:15:31.557Z,36.75
2023-04-02T00:18:00.371Z,34.35
2023-04-02T00:20:29.221Z,35.80
2023-04-02T00:22:57.377Z,32.67
2023-04-02T00:25:28.066Z,30.98
2023-04-02T00:27:56.849Z,38.25
2023-04-02T00:30:26.518Z,39.10
2023-04-02T00:32:55.543Z,37.80
2023-04-02T00:35:28.227Z,35.78
2023-04-02T00:37:56.626Z,36.97
2023-04-02T00:40:29.783Z,39.47
2023-04-02T00:43:00.088Z,34.15
2023-04-02T00:45:29.835Z,32.45
2023-04-02T00:47:58.842Z,35.60
2023-04-02T00:50:35.920Z,38.17
2023-04-02T00:53:16.569Z,34.35
2023-04-02T00:55:44.901Z,32.22
2023-04-02T00:58:20.414Z,31.95
2023-04-02T01:00:52.143Z,33.28
2023-04-02T01:03:20.154Z,32.83
2023-04-02T01:05:50.425Z,37.05
2023-04-02T01:08:25.241Z,35.15
2023-04-02T01:11:02.490Z,32.90
2023-04-02T01:13:36.475Z,35.33
2023-04-02T01:16:12.814Z,37.63
2023-04-02T01:18:40.651Z,34.45
2023-04-02T01:21:08.630Z,32.97
2023-04-02T01:23:45.202Z,34.05
2023-04-02T01:26:31.959Z,37.17
2023-04-02T01:29:02.868Z,35.97
2023-04-02T01:31:33.361Z,37.45
2023-04-02T01:34:03.150Z,37.80
2023-04-02T01:36:43.487Z,35.72
2023-04-02T01:39:17.712Z,33.42
2023-04-02T01:41:48.632Z,38.13
2023-04-02T01:44:21.583Z,34.55
2023-04-02T01:46:50.492Z,38.88
2023-04-02T01:49:23.298Z,35.20
2023-04-02T01:51:53.156Z,36.30
2023-04-02T01:54:22.498Z,31.80
2023-04-02T01:56:51.127Z,37.33
2023-04-02T01:59:22.326Z,33.75
2023-04-02T02:01:54.588Z,33.53
2023-04-02T02:04:22.713Z,32.75
2023-04-02T02:06:50.940Z,35.70
2023-04-02T02:09:23.259Z,34.22
2023-04-02T02:11:51.968Z,36.83
2023-04-02T02:14:20.917Z,37.45
2023-04-02T02:16:48.997Z,33.25
2023-04-02T02:19:35.866Z,30.30
2023-04-02T02:22:10.821Z,27.40
2023-04-02T02:24:38.702Z,30.55
2023-04-02T02:27:19.052Z,27.75
2023-04-02T02:29:47.911Z,27.70
2023-04-02T02:32:16.858Z,29.35
2023-04-02T02:34:49.218Z,28.13
2023-04-02T02:37:20.431Z,27.40
2023-04-02T02:39:52.540Z,32.95
2023-04-02T02:42:20.362Z,26.10
2023-04-02T02:44:50.069Z,19.98
2023-04-02T02:47:24.548Z,19.75
2023-04-02T02:50:01.543Z,17.20
2023-04-02T02:52:32.374Z,18.67
2023-04-02T02:55:09.817Z,21.85
2023-04-02T02:57:52.383Z,20.23
2023-04-02T03:00:24.771Z,20.05
2023-04-02T03:02:56.684Z,23.02
2023-04-02T03:05:28.557Z,30.15
2023-04-02T03:08:02.088Z,26.40
2023-04-02T03:10:43.343Z,29.42
2023-04-02T03:13:22.007Z,32.13
2023-04-02T03:15:56.608Z,32.17
2023-04-02T03:18:26.270Z,29.90
2023-04-02T03:20:56.893Z,31.42
2023-04-02T03:23:28.296Z,34.40
2023-04-02T03:25:58.651Z,34.03
2023-04-02T03:28:31.999Z,30.30
2023-04-02T03:31:12.115Z,36.97
2023-04-02T03:33:43.185Z,33.08
2023-04-02T03:36:29.273Z,33.33
2023-04-02T03:39:05.041Z,30.52
2023-04-02T03:41:42.502Z,30.83
2023-04-02T03:44:22.364Z,34.85
2023-04-02T03:46:57.696Z,30.90
2023-04-02T03:49:37.698Z,30.65
2023-04-02T03:52:07.604Z,29.85
2023-04-02T03:54:37.424Z,30.80
2023-04-02T03:57:08.388Z,27.92
2023-04-02T04:00:06.430Z,22.40
2023-04-02T04:02:42.805Z,25.65
2023-04-02T04:05:37.540Z,27.80
2023-04-02T04:08:07.620Z,28.70
2023-04-02T04:10:36.347Z,30.30
2023-04-02T04:13:21.219Z,29.17
2023-04-02T04:15:52.263Z,41.20
2023-04-02T04:18:30.067Z,28.13
2023-04-02T04:20:59.385Z,27.55
2023-04-02T04:23:35.999Z,28.63
2023-04-02T04:26:20.043Z,27.83
2023-04-02T04:29:05.758Z,26.45
2023-04-02T04:31:39.741Z,29.17
2023-04-02T04:34:12.945Z,24.55
2023-04-02T04:36:54.562Z,21.05
2023-04-02T04:39:34.925Z,20.95
2023-04-02T04:42:05.580Z,18.63
2023-04-02T04:44:44.202Z,21.90
2023-04-02T04:47:27.512Z,19.00
2023-04-02T04:49:57.850Z,19.35
2023-04-02T04:52:27.827Z,18.45
2023-04-02T04:54:56.664Z,18.17
2023-04-02T04:57:31.315Z,16.30
2023-04-02T05:00:20.782Z,18.50
2023-04-02T05:03:03.562Z,17.33
2023-04-02T05:05:45.425Z,17.27
2023-04-02T05:08:43.177Z,19.77
2023-04-02T05:11:16.972Z,21.52
2023-04-02T05:13:48.179Z,23.67
2023-04-02T05:16:35.160Z,23.60
2023-04-02T05:19:08.109Z,22.20
2023-04-02T05:21:43.212Z,24.75
2023-04-02T05:24:18.733Z,24.40
2023-04-02T05:26:48.561Z,27.23
2023-04-02T05:29:19.958Z,28.98
2023-04-02T05:32:07.540Z,26.05
2023-04-02T05:34:40.360Z,26.15
2023-04-02T05:37:14.656Z,29.10
2023-04-02T05:39:45.441Z,29.80
2023-04-02T05:42:21.456Z,31.38
2023-04-02T05:45:13.454Z,39.92
2023-04-02T05:47:43.463Z,32.40
2023-04-02T05:50:40.398Z,37.80
2023-04-02T05:53:18.964Z,32.65
2023-04-02T05:55:54.238Z,41.80
2023-04-02T05:58:37.803Z,39.45
2023-04-02T06:01:38.231Z,39.05
2023-04-02T06:04:24.309Z,32.70
2023-04-02T06:06:59.100Z,36.85
2023-04-02T06:09:27.870Z,33.97
2023-04-02T06:12:15.849Z,37.45
2023-04-02T06:14:45.071Z,37.00
2023-04-02T06:17:17.767Z,38.88
2023-04-02T06:19:46.897Z,35.30
2023-04-02T06:22:35.333Z,36.33
2023-04-02T06:25:07.062Z,39.92
2023-04-02T06:27:41.214Z,38.22
2023-04-02T06:30:16.304Z,37.72
2023-04-02T06:32:45.283Z,38.92
2023-04-02T06:35:16.614Z,31.85
2023-04-02T06:37:50.125Z,35.58
2023-04-02T06:40:40.266Z,39.63
2023-04-02T06:43:27.045Z,37.35
2023-04-02T06:46:08.993Z,35.50
2023-04-02T06:49:02.415Z,35.67
2023-04-02T06:51:31.264Z,32.65
2023-04-02T06:54:00.881Z,37.85
2023-04-02T06:56:46.700Z,37.33
2023-04-02T06:59:22.016Z,32.92
2023-04-02T07:02:06.684Z,36.60
2023-04-02T07:04:35.527Z,36.47
2023-04-02T07:07:04.555Z,35.42
2023-04-02T07:09:36.463Z,31.23
2023-04-02T07:12:12.080Z,37.60
2023-04-02T07:14:41.442Z,37.70
2023-04-02T07:17:15.477Z,34.53
2023-04-02T07:19:45.926Z,34.05
2023-04-02T07:22:14.027Z,36.38
2023-04-02T07:24:49.700Z,36.80
2023-04-02T07:27:39.588Z,34.50
2023-04-02T07:30:08.011Z,33.40
2023-04-02T07:32:36.756Z,34.00
2023-04-02T07:35:07.875Z,31.83
2023-04-02T07:37:36.211Z,31.85
2023-04-02T07:40:06.214Z,34.13
2023-04-02T07:42:34.106Z,31.48
2023-04-02T07:45:04.033Z,32.75
2023-04-02T07:47:36.678Z,36.70
2023-04-02T07:50:05.207Z,27.45
2023-04-02T07:52:33.127Z,24.38
2023-04-02T07:55:02.119Z,26.73
2023-04-02T07:57:29.976Z,24.13
2023-04-02T07:59:58.059Z,24.20
2023-04-02T08:02:26.186Z,23.10
2023-04-02T08:04:54.453Z,25.00
2023-04-02T08:07:22.443Z,29.88
2023-04-02T08:09:50.553Z,28.05
2023-04-02T08:12:18.605Z,27.98
2023-04-02T08:14:46.416Z,29.95
2023-04-02T08:17:14.472Z,30.58
2023-04-02T08:19:54.235Z,25.42
2023-04-02T08:22:23.206Z,29.92
2023-04-02T08:24:51.104Z,29.35
2023-04-02T08:27:19.120Z,26.67
2023-04-02T08:29:47.285Z,26.88
2023-04-02T08:32:18.662Z,29.23
2023-04-02T08:34:46.495Z,26.73
2023-04-02T08:37:14.840Z,28.08
2023-04-02T08:39:42.671Z,31.10
2023-04-02T08:42:31.033Z,28.70
2023-04-02T08:45:23.593Z,30.40
2023-04-02T08:47:55.590Z,31.75
2023-04-02T08:50:34.069Z,28.58
2023-04-02T08:53:03.339Z,28.92
2023-04-02T08:55:33.046Z,28.80
2023-04-02T08:58:19.866Z,29.77
2023-04-02T09:00:49.145Z,30.10
2023-04-02T09:03:17.116Z,25.15
2023-04-02T09:05:46.319Z,21.20
2023-04-02T09:08:20.085Z,19.50
2023-04-02T09:11:07.005Z,17.20
2023-04-02T09:13:37.702Z,19.10
2023-04-02T09:16:13.727Z,20.73
2023-04-02T09:18:41.861Z,22.63
2023-04-02T09:21:28.355Z,18.70
2023-04-02T09:23:56.232Z,18.38
2023-04-02T09:26:27.377Z,15.63
2023-04-02T09:29:14.164Z,17.00
2023-04-02T09:31:47.610Z,19.20
2023-04-02T09:34:29.779Z,17.48
2023-04-02T09:36:58.735Z,20.60
2023-04-02T09:39:26.893Z,10.63
2023-04-02T09:42:05.427Z,9.98
2023-04-02T09:44:34.429Z,8.52
2023-04-02T09:47:04.389Z,11.13
2023-04-02T09:49:36.255Z,9.35
2023-04-02T09:52:16.774Z,7.88
2023-04-02T09:54:45.112Z,11.93
2023-04-02T09:57:23.943Z,10.63
2023-04-02T10:00:25.283Z,8.43
2023-04-02T10:03:03.722Z,10.23
2023-04-02T10:05:40.690Z,11.30
2023-04-02T10:08:17.737Z,13.80
2023-04-02T10:10:48.697Z,9.32
2023-04-02T10:13:20.117Z,7.25
2023-04-02T10:15:47.976Z,10.07
2023-04-02T10:18:16.154Z,10.95
2023-04-02T10:20:51.209Z,9.35
2023-04-02T10:23:20.337Z,9.40
2023-04-02T10:26:08.221Z,9.20
2023-04-02T10:28:38.404Z,8.90
2023-04-02T10:31:17.582Z,7.45
2023-04-02T10:33:51.261Z,8.13
2023-04-02T10:36:38.016Z,7.22
2023-04-02T10:39:15.182Z,10.73
2023-04-02T10:41:53.533Z,15.32
2023-04-02T10:44:21.680Z,11.18
2023-04-02T10:46:49.435Z,11.32
2023-04-02T10:49:46.791Z,16.13
2023-04-02T10:52:21.530Z,10.45
2023-04-02T10:54:53.433Z,8.15
2023-04-02T10:57:21.428Z,9.32
2023-04-02T11:00:06.817Z,12.77
2023-04-02T11:02:53.625Z,10.05
2023-04-02T11:05:37.186Z,13.30
2023-04-02T11:08:08.057Z,11.45
2023-04-02T11:10:37.987Z,10.30
2023-04-02T11:13:08.920Z,8.25
2023-04-02T11:15:37.964Z,13.75
2023-04-02T11:18:06.350Z,14.65
2023-04-02T11:20:49.668Z,12.40
2023-04-02T11:23:21.222Z,9.88
2023-04-02T11:25:49.544Z,12.20
2023-04-02T11:28:31.037Z,17.63
2023-04-02T11:30:59.385Z,14.95
2023-04-02T11:33:36.344Z,10.77
2023-04-02T11:36:26.588Z,10.45
2023-04-02T11:39:04.490Z,12.25
2023-04-02T11:41:57.736Z,14.57
2023-04-02T11:44:25.916Z,8.48
2023-04-02T11:46:53.791Z,12.35
2023-04-02T11:49:36.129Z,12.95
2023-04-02T11:52:11.852Z,5.75
2023-04-02T11:54:40.558Z,5.80
2023-04-02T11:57:24.763Z,6.68
2023-04-02T12:00:17.997Z,5.85
2023-04-02T12:03:09.530Z,3.55
2023-04-02T12:05:43.200Z,4.40
2023-04-02T12:08:41.936Z,2.95
2023-04-02T12:11:18.897Z,2.78
2023-04-02T12:13:51.521Z,2.10
2023-04-02T12:16:20.249Z,1.75
2023-04-02T12:18:55.953Z,2.92
2023-04-02T12:21:25.513Z,2.63
2023-04-02T12:23:55.493Z,3.13
2023-04-02T12:26:37.451Z,1.13
2023-04-02T12:29:24.957Z,3.15
2023-04-02T12:31:53.393Z,1.48
2023-04-02T12:34:22.177Z,2.50
2023-04-02T12:36:56.149Z,2.63
2023-04-02T12:39:26.683Z,0.63
2023-04-02T12:41:55.978Z,2.13
2023-04-02T12:44:26.026Z,0.85
2023-04-02T12:46:54.490Z,1.02
2023-04-02T12:49:31.717Z,1.73
2023-04-02T12:52:00.133Z,2.08
2023-04-02T12:54:28.132Z,1.05
2023-04-02T12:57:16.319Z,2.45
2023-04-02T12:59:44.539Z,1.05
2023-04-02T13:02:32.401Z,1.33
2023-04-02T13:05:01.658Z,0.95
2023-04-02T13:10:24.553Z,3.42
2023-04-02T13:13:15.672Z,1.77
2023-04-02T13:15:43.860Z,2.55
2023-04-02T13:18:16.693Z,1.80
2023-04-02T13:20:56.227Z,2.70
2023-04-02T13:23:24.081Z,1.08
2023-04-02T13:25:53.342Z,0.98
2023-04-02T13:28:21.902Z,0.75
2023-04-02T13:30:52.056Z,0.73
2023-04-02T13:33:21.320Z,2.08
2023-04-02T13:35:50.391Z,0.68
2023-04-02T13:38:19.433Z,1.58
2023-04-02T13:40:48.278Z,1.25
2023-04-02T13:43:20.501Z,1.60
2023-04-02T13:45:51.247Z,2.72
2023-04-02T13:48:19.564Z,0.65
2023-04-02T13:50:48.033Z,0.88
2023-04-02T13:53:21.868Z,1.27
2023-04-02T13:55:50.452Z,0.65
2023-04-02T13:58:19.267Z,1.05
2023-04-02T14:00:47.852Z,3.05
2023-04-02T14:03:22.974Z,0.77
2023-04-02T14:05:58.082Z,0.95
2023-04-02T14:08:42.133Z,1.17
2023-04-02T14:11:28.786Z,1.55
2023-04-02T14:13:59.848Z,0.68
2023-04-02T14:16:46.964Z,1.13
2023-04-02T14:19:35.288Z,0.85
2023-04-02T14:22:14.173Z,0.68
2023-04-02T14:24:49.933Z,2.83
2023-04-02T14:27:24.131Z,1.55
2023-04-02T14:29:56.931Z,1.92
2023-04-02T14:32:24.802Z,0.98
2023-04-02T14:35:02.196Z,0.90
2023-04-02T14:37:36.523Z,1.95
2023-04-02T14:40:23.321Z,1.98
2023-04-02T14:42:57.676Z,1.00
2023-04-02T14:45:28.588Z,2.85
2023-04-02T14:48:00.796Z,5.43
2023-04-02T14:50:33.113Z,1.13
2023-04-02T14:53:04.914Z,1.15
2023-04-02T14:55:38.456Z,1.80
2023-04-02T14:58:09.873Z,4.30
2023-04-02T15:00:52.388Z,1.58
2023-04-02T15:03:24.930Z,3.10
2023-04-02T15:05:56.059Z,2.22
2023-04-02T15:08:27.284Z,2.42
2023-04-02T15:11:00.951Z,0.70
2023-04-02T15:13:37.508Z,1.50
2023-04-02T15:16:11.487Z,1.25
2023-04-02T15:18:40.251Z,0.93
2023-04-02T15:21:14.280Z,1.67
2023-04-02T15:23:51.846Z,1.45
2023-04-02T15:26:30.835Z,1.05
2023-04-02T15:29:27.798Z,1.98
2023-04-02T15:32:29.725Z,2.22
2023-04-02T15:35:05.637Z,1.70
2023-04-02T15:37:40.862Z,3.17
2023-04-02T15:40:08.732Z,2.00
2023-04-02T15:42:55.621Z,2.08
2023-04-02T15:45:27.550Z,3.22
2023-04-02T15:48:07.593Z,1.77
2023-04-02T15:50:51.085Z,2.85
2023-04-02T15:55:50.708Z,3.53
2023-04-02T15:58:21.957Z,2.42
2023-04-02T16:00:51.271Z,3.00
2023-04-02T16:03:34.860Z,2.28
2023-04-02T16:06:19.001Z,1.77
2023-04-02T16:08:48.804Z,2.17
2023-04-02T16:11:17.714Z,2.60
2023-04-02T16:13:51.643Z,3.72
2023-04-02T16:16:19.764Z,1.98
2023-04-02T16:21:55.572Z,1.23
2023-04-02T16:24:24.883Z,2.72
2023-04-02T16:27:20.508Z,4.18
2023-04-02T16:30:13.163Z,3.58
2023-04-02T16:33:00.173Z,2.42
2023-04-02T16:35:43.223Z,5.43
2023-04-02T16:38:36.050Z,10.00
2023-04-02T16:41:09.302Z,6.93
2023-04-02T16:43:50.146Z,2.58
2023-04-02T16:46:38.821Z,3.45
2023-04-02T16:49:15.184Z,5.20
2023-04-02T16:51:51.607Z,3.15
2023-04-02T16:54:36.780Z,2.72
2023-04-02T16:57:15.747Z,4.50
2023-04-02T16:59:56.186Z,9.85
2023-04-02T17:02:55.934Z,2.88
2023-04-02T17:05:44.427Z,3.50
2023-04-02T17:08:13.143Z,4.35
2023-04-02T17:10:44.152Z,3.25
2023-04-02T17:13:26.527Z,2.67
2023-04-02T17:16:02.125Z,5.47
2023-04-02T17:18:31.949Z,4.88
2023-04-02T17:21:04.195Z,3.55
2023-04-02T17:23:36.617Z,5.68
2023-04-02T17:26:10.529Z,2.75
2023-04-02T17:28:40.528Z,4.35
2023-04-02T17:31:14.839Z,4.07
2023-04-02T17:33:44.200Z,4.85
2023-04-02T17:36:23.520Z,3.63
2023-04-02T17:39:05.051Z,4.68
2023-04-02T17:41:38.360Z,6.28
2023-04-02T17:44:13.610Z,4.80
2023-04-02T17:47:09.713Z,5.80
2023-04-02T17:49:53.174Z,7.60
2023-04-02T17:52:40.590Z,7.57
2023-04-02T17:55:23.927Z,5.78
2023-04-02T17:58:00.061Z,7.38
2023-04-02T18:00:59.314Z,7.32
2023-04-02T18:03:52.850Z,8.02
2023-04-02T18:06:43.702Z,7.32
2023-04-02T18:09:11.951Z,8.82
2023-04-02T18:11:41.946Z,7.90
2023-04-02T18:14:16.394Z,8.90
2023-04-02T18:16:49.577Z,8.80
2023-04-02T18:21:49.003Z,10.77
2023-04-02T18:24:32.946Z,8.73
2023-04-02T18:27:10.743Z,8.70
2023-04-02T18:29:40.542Z,10.75
2023-04-02T18:32:09.239Z,11.40
2023-04-02T18:34:37.340Z,10.70
2023-04-02T18:37:25.868Z,12.07
2023-04-02T18:40:13.889Z,11.85
2023-04-02T18:43:03.063Z,40.25
2023-04-02T18:45:50.244Z,23.27
2023-04-02T18:48:33.797Z,12.93
2023-04-02T18:51:05.854Z,11.88
2023-04-02T18:56:13.942Z,11.52
2023-04-02T18:59:04.073Z,10.98
2023-04-02T19:01:47.792Z,14.95
2023-04-02T19:04:32.199Z,13.68
2023-04-02T19:07:18.013Z,10.80
2023-04-02T19:09:51.950Z,12.52
2023-04-02T19:12:33.024Z,12.05
2023-04-02T19:15:05.512Z,13.23
2023-04-02T19:17:48.100Z,13.85
2023-04-02T19:20:32.390Z,14.50
2023-04-02T19:23:04.178Z,12.77
2023-04-02T19:25:37.898Z,12.15
2023-04-02T19:28:29.459Z,16.90
2023-04-02T19:31:19.167Z,17.15
2023-04-02T19:33:56.720Z,13.25
2023-04-02T19:40:10.717Z,15.27
2023-04-02T19:42:39.450Z,14.38
2023-04-02T19:45:17.943Z,15.88
2023-04-02T19:47:46.028Z,14.65
2023-04-02T19:50:14.197Z,16.58
2023-04-02T19:52:45.700Z,16.02
2023-04-02T19:55:15.492Z,15.25
2023-04-02T19:57:45.900Z,14.35
2023-04-02T20:00:15.954Z,19.02
2023-04-02T20:02:51.314Z,15.88
2023-04-02T20:05:19.786Z,16.45
2023-04-02T20:07:49.654Z,16.70
2023-04-02T20:10:21.961Z,17.83
2023-04-02T20:12:54.035Z,15.77
2023-04-02T20:15:22.318Z,12.68
2023-04-02T20:17:50.305Z,13.07
2023-04-02T20:20:21.687Z,7.80
2023-04-02T20:22:53.722Z,8.20
2023-04-02T20:25:21.727Z,9.50
2023-04-02T20:27:53.618Z,9.75
2023-04-02T20:30:23.840Z,13.27
2023-04-02T20:32:55.780Z,9.75
2023-04-02T20:35:24.168Z,11.23
2023-04-02T20:37:52.218Z,10.02
2023-04-02T20:40:26.104Z,10.02
2023-04-02T20:42:55.788Z,10.75
2023-04-02T20:45:24.581Z,10.60
2023-04-02T20:47:54.370Z,10.52
2023-04-02T20:50:22.780Z,10.70
2023-04-02T20:52:51.114Z,7.43
2023-04-02T20:55:20.355Z,8.43
2023-04-02T20:57:49.529Z,10.20
2023-04-02T21:00:17.847Z,8.45
2023-04-02T21:02:46.868Z,6.85
2023-04-02T21:05:15.347Z,6.53
2023-04-02T21:07:43.831Z,7.78
2023-04-02T21:10:11.749Z,6.88
2023-04-02T21:12:40.592Z,8.98
2023-04-02T21:15:16.008Z,8.77
2023-04-02T21:17:44.994Z,17.30
2023-04-02T21:20:13.318Z,15.15
2023-04-02T21:22:41.741Z,10.07
2023-04-02T21:25:10.351Z,9.48
2023-04-02T21:27:38.259Z,9.50
2023-04-02T21:30:06.523Z,7.53
2023-04-02T21:32:34.392Z,8.38
2023-04-02T21:35:02.394Z,6.60
2023-04-02T21:37:30.398Z,8.73
2023-04-02T21:39:58.373Z,6.15
2023-04-02T21:42:26.405Z,8.05
2023-04-02T21:44:54.245Z,8.10
2023-04-02T21:47:23.903Z,10.85
2023-04-02T21:49:51.798Z,7.18
2023-04-02T21:52:19.904Z,9.75
2023-04-02T21:54:47.834Z,8.57
2023-04-02T21:57:17.883Z,7.30
2023-04-02T21:59:56.429Z,9.93
2023-04-02T22:02:27.568Z,8.23
2023-04-02T22:04:56.024Z,10.35
2023-04-02T22:07:23.973Z,10.70
2023-04-02T22:09:52.132Z,7.82
2023-04-02T22:12:19.984Z,8.27
2023-04-02T22:17:33.454Z,10.23
2023-04-02T22:20:01.465Z,8.20
2023-04-02T22:22:29.456Z,7.63
2023-04-02T22:24:57.583Z,7.57
2023-04-02T22:27:25.450Z,7.20
2023-04-02T22:29:54.425Z,6.45
2023-04-02T22:32:22.479Z,7.90
2023-04-02T22:34:50.584Z,5.00
2023-04-02T22:37:18.744Z,6.28
2023-04-02T22:39:46.794Z,6.88
2023-04-02T22:42:14.685Z,9.02
2023-04-02T22:44:42.765Z,7.90
2023-04-02T22:47:10.804Z,6.50
2023-04-02T22:49:38.805Z,8.57
2023-04-02T22:54:52.811Z,5.10
2023-04-02T22:57:21.596Z,6.63
2023-04-02T22:59:49.456Z,7.13
2023-04-02T23:02:17.380Z,5.72
2023-04-02T23:04:45.400Z,6.90
2023-04-02T23:07:13.411Z,7.30
2023-04-02T23:09:41.258Z,7.88
2023-04-02T23:12:09.279Z,6.53
2023-04-02T23:14:37.195Z,5.97
2023-04-02T23:17:06.359Z,7.70
2023-04-02T23:19:34.207Z,6.60
2023-04-02T23:22:02.235Z,7.15
2023-04-02T23:24:30.298Z,8.30
2023-04-02T23:26:58.248Z,6.88
2023-04-02T23:29:26.289Z,5.35
2023-04-02T23:31:54.229Z,7.00
2023-04-02T23:34:22.438Z,6.57
2023-04-02T23:36:50.397Z,6.22
2023-04-02T23:39:20.317Z,6.15
2023-04-02T23:41:49.139Z,6.35
2023-04-02T23:44:17.130Z,5.43
2023-04-02T23:46:45.116Z,6.25
2023-04-02T23:49:13.168Z,5.57
2023-04-02T23:51:41.573Z,7.32
2023-04-02T23:54:09.682Z,4.80
2023-04-02T23:56:37.507Z,4.93
2023-04-02T23:59:05.668Z,5.32
